createdAt,value
2018-04-02T00:00:55.860Z,1.79
2018-04-02T00:03:24.811Z,1.69
2018-04-02T00:05:53.687Z,1.72
2018-04-02T00:08:22.481Z,1.75
2018-04-02T00:10:50.913Z,1.73
2018-04-02T00:13:19.587Z,1.65
2018-04-02T00:15:49.257Z,1.66
2018-04-02T00:18:17.892Z,1.68
2018-04-02T00:20:46.361Z,1.61
2018-04-02T00:23:15.023Z,1.57
2018-04-02T00:25:43.769Z,1.52
2018-04-02T00:28:12.311Z,1.46
2018-04-02T00:30:40.998Z,1.43
2018-04-02T00:33:09.434Z,1.41
2018-04-02T00:35:37.831Z,1.37
2018-04-02T00:38:06.713Z,1.36
2018-04-02T00:40:35.091Z,1.35
2018-04-02T00:43:03.559Z,1.35
2018-04-02T00:45:32.767Z,1.29
2018-04-02T00:48:01.127Z,1.31
2018-04-02T00:50:29.466Z,1.32
2018-04-02T00:52:58.722Z,1.33
2018-04-02T00:55:27.066Z,1.21
2018-04-02T00:57:56.592Z,1.22
2018-04-02T01:00:25.539Z,1.23
2018-04-02T01:02:54.113Z,1.28
2018-04-02T01:05:22.651Z,1.30
2018-04-02T01:07:52.006Z,1.32
2018-04-02T01:10:20.607Z,1.27
2018-04-02T01:12:50.040Z,1.26
2018-04-02T01:15:18.673Z,1.21
2018-04-02T01:17:47.255Z,1.16
2018-04-02T01:20:16.102Z,1.13
2018-04-02T01:22:44.941Z,1.12
2018-04-02T01:25:13.678Z,1.11
2018-04-02T01:27:42.190Z,1.10
2018-04-02T01:30:10.587Z,1.11
2018-04-02T01:32:39.014Z,1.10
2018-04-02T01:35:07.455Z,1.11
2018-04-02T01:37:37.009Z,1.09
2018-04-02T01:40:05.360Z,1.07
2018-04-02T01:42:33.779Z,1.06
2018-04-02T01:45:02.180Z,1.06
2018-04-02T01:47:30.516Z,1.02
2018-04-02T01:49:58.890Z,0.98
2018-04-02T01:52:27.352Z,0.97
2018-04-02T01:54:55.830Z,0.92
2018-04-02T01:57:24.356Z,0.90
2018-04-02T01:59:52.771Z,0.83
2018-04-02T02:02:21.125Z,0.87
2018-04-02T02:04:49.560Z,0.84
2018-04-02T02:07:18.168Z,0.83
2018-04-02T02:09:46.586Z,0.85
2018-04-02T02:12:15.102Z,0.89
2018-04-02T02:14:43.481Z,0.85
2018-04-02T02:17:11.957Z,0.91
2018-04-02T02:19:40.381Z,0.93
2018-04-02T02:22:08.765Z,0.93
2018-04-02T02:24:37.153Z,0.90
2018-04-02T02:27:05.511Z,0.83
2018-04-02T02:29:33.908Z,0.84
2018-04-02T02:32:02.515Z,0.86
2018-04-02T02:34:30.932Z,0.87
2018-04-02T02:36:59.820Z,0.84
2018-04-02T02:39:28.221Z,0.86
2018-04-02T02:41:56.620Z,0.86
2018-04-02T02:44:25.972Z,0.84
2018-04-02T02:46:54.524Z,0.83
2018-04-02T02:49:23.003Z,0.82
2018-04-02T02:51:51.538Z,0.83
2018-04-02T02:54:19.947Z,0.83
2018-04-02T02:56:48.354Z,0.81
2018-04-02T02:59:16.929Z,0.81
2018-04-02T03:01:45.673Z,0.78
2018-04-02T03:04:14.093Z,0.78
2018-04-02T03:06:42.688Z,0.78
2018-04-02T03:09:11.160Z,0.78
2018-04-02T03:11:39.566Z,0.79
2018-04-02T03:14:08.710Z,0.77
2018-04-02T03:16:37.090Z,0.83
2018-04-02T03:19:05.430Z,0.80
2018-04-02T03:21:34.074Z,0.77
2018-04-02T03:24:02.467Z,0.79
2018-04-02T03:26:30.843Z,0.77
2018-04-02T03:28:59.323Z,0.80
2018-04-02T03:31:27.722Z,0.74
2018-04-02T03:33:56.134Z,0.81
2018-04-02T03:36:24.531Z,0.82
2018-04-02T03:38:52.962Z,0.85
2018-04-02T03:41:21.361Z,0.85
2018-04-02T03:43:49.993Z,0.88
2018-04-02T03:46:24.193Z,0.88
2018-04-02T03:48:52.758Z,0.90
2018-04-02T03:51:21.097Z,0.85
2018-04-02T03:53:49.501Z,0.90
2018-04-02T03:56:18.126Z,0.89
2018-04-02T03:58:46.842Z,0.93
2018-04-02T04:01:15.452Z,0.89
2018-04-02T04:03:44.705Z,0.90
2018-04-02T04:06:13.114Z,0.91
2018-04-02T04:08:41.613Z,0.89
2018-04-02T04:11:10.109Z,0.93
2018-04-02T04:13:40.383Z,0.97
2018-04-02T04:16:08.745Z,1.04
2018-04-02T04:18:37.144Z,1.09
2018-04-02T04:21:05.517Z,1.12
2018-04-02T04:23:33.862Z,1.17
2018-04-02T04:26:02.585Z,1.20
2018-04-02T04:28:30.941Z,1.23
2018-04-02T04:30:59.337Z,1.23
2018-04-02T04:33:27.749Z,1.24
2018-04-02T04:35:56.107Z,1.24
2018-04-02T04:38:24.466Z,1.26
2018-04-02T04:40:53.372Z,1.29
2018-04-02T04:43:21.724Z,1.32
2018-04-02T04:45:50.071Z,1.32
2018-04-02T04:48:19.323Z,1.32
2018-04-02T04:50:47.704Z,1.32
2018-04-02T04:53:16.386Z,1.34
2018-04-02T04:55:44.808Z,1.37
2018-04-02T04:58:13.254Z,1.40
2018-04-02T05:00:41.662Z,1.44
2018-04-02T05:03:10.409Z,1.45
2018-04-02T05:05:38.797Z,1.48
2018-04-02T05:08:07.196Z,1.47
2018-04-02T05:10:36.178Z,1.51
2018-04-02T05:13:04.547Z,1.49
2018-04-02T05:15:32.993Z,1.49
2018-04-02T05:18:01.368Z,1.50
2018-04-02T05:20:29.739Z,1.51
2018-04-02T05:22:58.082Z,1.53
2018-04-02T05:25:28.044Z,1.55
2018-04-02T05:27:56.482Z,1.57
2018-04-02T05:30:25.037Z,1.61
2018-04-02T05:32:54.295Z,1.60
2018-04-02T05:35:22.842Z,1.65
2018-04-02T05:37:51.308Z,1.63
2018-04-02T05:40:21.608Z,1.67
2018-04-02T05:42:50.558Z,1.70
2018-04-02T05:45:19.110Z,1.74
2018-04-02T05:47:47.936Z,1.76
2018-04-02T05:50:16.413Z,1.77
2018-04-02T05:52:44.859Z,1.78
2018-04-02T05:55:13.526Z,1.85
2018-04-02T05:57:42.048Z,1.90
2018-04-02T06:00:10.437Z,1.94
2018-04-02T06:02:38.841Z,1.97
2018-04-02T06:05:07.214Z,1.99
2018-04-02T06:07:35.559Z,2.07
2018-04-02T06:10:04.553Z,2.13
2018-04-02T06:12:36.380Z,2.20
2018-04-02T06:15:04.781Z,2.26
2018-04-02T06:17:33.226Z,2.29
2018-04-02T06:20:02.638Z,2.38
2018-04-02T06:22:30.978Z,2.45
2018-04-02T06:24:59.501Z,2.54
2018-04-02T06:27:27.915Z,2.59
2018-04-02T06:29:56.537Z,2.71
2018-04-02T06:32:25.258Z,2.74
2018-04-02T06:34:53.871Z,2.82
2018-04-02T06:37:23.372Z,2.86
2018-04-02T06:39:52.368Z,2.92
2018-04-02T06:42:20.987Z,3.01
2018-04-02T06:44:49.711Z,3.11
2018-04-02T06:47:18.553Z,3.17
2018-04-02T06:49:47.823Z,3.22
2018-04-02T06:52:16.334Z,3.21
2018-04-02T06:54:44.814Z,3.19
2018-04-02T06:57:13.244Z,3.31
2018-04-02T06:59:41.819Z,3.43
2018-04-02T07:02:12.231Z,3.48
2018-04-02T07:04:40.610Z,3.56
2018-04-02T07:07:09.057Z,3.66
2018-04-02T07:09:37.739Z,3.71
2018-04-02T07:12:06.370Z,3.72
2018-04-02T07:14:34.714Z,3.71
2018-04-02T07:17:03.385Z,3.76
2018-04-02T07:19:33.509Z,3.75
2018-04-02T07:22:01.985Z,3.83
2018-04-02T07:24:30.541Z,3.90
2018-04-02T07:26:58.918Z,3.97
2018-04-02T07:29:27.336Z,4.08
2018-04-02T07:31:55.883Z,4.16
2018-04-02T07:34:24.313Z,4.25
2018-04-02T07:36:52.879Z,4.33
2018-04-02T07:39:21.717Z,4.38
2018-04-02T07:41:50.166Z,4.31
2018-04-02T07:44:18.627Z,4.35
2018-04-02T07:46:47.158Z,4.33
2018-04-02T07:49:17.477Z,4.39
2018-04-02T07:51:45.969Z,4.38
2018-04-02T07:54:14.981Z,4.41
2018-04-02T07:56:44.616Z,4.38
2018-04-02T07:59:14.028Z,4.50
2018-04-02T08:01:42.646Z,4.62
2018-04-02T08:04:11.018Z,4.70
2018-04-02T08:06:39.411Z,4.77
2018-04-02T08:09:08.632Z,4.90
2018-04-02T08:11:37.037Z,4.99
2018-04-02T08:14:05.405Z,5.05
2018-04-02T08:16:34.275Z,5.10
2018-04-02T08:19:02.727Z,5.17
2018-04-02T08:21:31.270Z,5.17
2018-04-02T08:24:00.478Z,5.18
2018-04-02T08:26:28.950Z,5.32
2018-04-02T08:28:57.988Z,5.35
2018-04-02T08:31:27.177Z,5.36
2018-04-02T08:33:55.898Z,5.30
2018-04-02T08:36:29.288Z,5.31
2018-04-02T08:38:58.031Z,5.34
2018-04-02T08:41:27.228Z,5.27
2018-04-02T08:43:56.128Z,5.36
2018-04-02T08:46:24.636Z,5.51
2018-04-02T08:48:53.469Z,5.50
2018-04-02T08:51:21.880Z,5.65
2018-04-02T08:53:50.639Z,5.62
2018-04-02T08:56:19.280Z,5.76
2018-04-02T08:58:48.119Z,5.83
2018-04-02T09:01:16.840Z,6.00
2018-04-02T09:03:46.814Z,6.26
2018-04-02T09:06:15.348Z,6.78
2018-04-02T09:08:44.197Z,7.43
2018-04-02T09:11:13.048Z,7.85
2018-04-02T09:13:42.800Z,8.26
2018-04-02T09:16:11.897Z,8.97
2018-04-02T09:18:40.626Z,9.55
2018-04-02T09:21:10.125Z,10.16
2018-04-02T09:23:38.556Z,10.19
2018-04-02T09:26:06.930Z,9.21
2018-04-02T09:28:35.325Z,9.17
2018-04-02T09:31:03.689Z,9.25
2018-04-02T09:33:32.111Z,9.77
2018-04-02T09:36:00.537Z,10.57
2018-04-02T09:38:28.915Z,10.98
2018-04-02T09:40:57.403Z,10.87
2018-04-02T09:43:26.297Z,11.03
2018-04-02T09:45:54.801Z,11.16
2018-04-02T09:48:23.343Z,11.85
2018-04-02T09:50:52.068Z,12.46
2018-04-02T09:53:20.577Z,12.86
2018-04-02T09:55:48.995Z,13.19
2018-04-02T09:58:17.745Z,13.91
2018-04-02T10:00:46.282Z,14.12
2018-04-02T10:03:14.860Z,14.49
2018-04-02T10:05:44.625Z,15.13
2018-04-02T10:08:13.314Z,14.49
2018-04-02T10:10:41.948Z,14.87
2018-04-02T10:13:11.450Z,15.42
2018-04-02T10:15:39.883Z,14.53
2018-04-02T10:18:08.568Z,15.87
2018-04-02T10:20:38.379Z,16.48
2018-04-02T10:23:07.396Z,16.20
2018-04-02T10:25:35.978Z,16.47
2018-04-02T10:28:05.683Z,16.22
2018-04-02T10:30:34.404Z,16.25
2018-04-02T10:33:03.302Z,16.37
2018-04-02T10:35:31.938Z,16.17
2018-04-02T10:38:00.657Z,16.38
2018-04-02T10:40:30.048Z,16.57
2018-04-02T10:42:59.436Z,17.79
2018-04-02T10:45:28.008Z,18.06
2018-04-02T10:47:56.835Z,17.68
2018-04-02T10:50:26.155Z,16.80
2018-04-02T10:52:55.450Z,16.38
2018-04-02T10:55:24.313Z,15.60
2018-04-02T10:57:53.415Z,15.96
2018-04-02T11:00:22.313Z,15.88
2018-04-02T11:02:51.536Z,16.06
2018-04-02T11:05:20.596Z,15.88
2018-04-02T11:07:50.306Z,15.28
2018-04-02T11:10:19.604Z,14.74
2018-04-02T11:12:49.010Z,14.35
2018-04-02T11:15:19.621Z,14.40
2018-04-02T11:17:48.931Z,14.57
2018-04-02T11:20:18.633Z,14.36
2018-04-02T11:22:47.340Z,14.21
2018-04-02T11:25:17.234Z,14.81
2018-04-02T11:27:47.618Z,14.87
2018-04-02T11:30:15.965Z,15.08
2018-04-02T11:32:44.340Z,15.54
2018-04-02T11:35:12.990Z,14.75
2018-04-02T11:37:41.494Z,14.67
2018-04-02T11:40:10.110Z,14.87
2018-04-02T11:42:38.658Z,14.34
2018-04-02T11:45:07.162Z,14.18
2018-04-02T11:47:35.896Z,14.60
2018-04-02T11:50:05.956Z,14.89
2018-04-02T11:52:35.644Z,14.60
2018-04-02T11:55:04.863Z,13.83
2018-04-02T11:57:33.968Z,14.24
2018-04-02T12:00:02.694Z,14.54
2018-04-02T12:02:31.554Z,15.45
2018-04-02T12:05:00.063Z,15.50
2018-04-02T12:07:29.519Z,15.61
2018-04-02T12:09:58.299Z,15.07
2018-04-02T12:12:27.925Z,15.91
2018-04-02T12:14:56.701Z,15.67
2018-04-02T12:17:25.229Z,15.27
2018-04-02T12:19:53.867Z,15.28
2018-04-02T12:22:22.329Z,14.96
2018-04-02T12:24:51.057Z,14.61
2018-04-02T12:27:20.496Z,14.77
2018-04-02T12:29:49.009Z,14.61
2018-04-02T12:32:17.472Z,15.11
2018-04-02T12:34:46.687Z,15.67
2018-04-02T12:37:15.042Z,15.46
2018-04-02T12:39:43.388Z,15.06
2018-04-02T12:42:11.822Z,14.63
2018-04-02T12:44:40.212Z,14.49
2018-04-02T12:47:08.610Z,14.66
2018-04-02T12:49:37.005Z,14.21
2018-04-02T12:52:05.414Z,13.73
2018-04-02T12:54:33.793Z,13.82
2018-04-02T12:57:02.221Z,14.16
2018-04-02T12:59:31.880Z,15.13
2018-04-02T13:02:00.284Z,15.47
2018-04-02T13:04:28.712Z,15.64
2018-04-02T13:06:57.153Z,14.81
2018-04-02T13:09:25.630Z,14.52
2018-04-02T13:11:54.361Z,14.25
2018-04-02T13:14:22.925Z,13.39
2018-04-02T13:16:51.832Z,12.78
2018-04-02T13:19:21.095Z,12.76
2018-04-02T13:21:49.984Z,12.29
2018-04-02T13:24:18.483Z,12.23
2018-04-02T13:26:46.910Z,12.29
2018-04-02T13:29:15.378Z,12.37
2018-04-02T13:31:43.802Z,12.88
2018-04-02T13:34:12.566Z,12.74
2018-04-02T13:36:40.980Z,12.74
2018-04-02T13:39:09.393Z,13.02
2018-04-02T13:41:37.849Z,12.92
2018-04-02T13:44:06.311Z,13.19
2018-04-02T13:46:35.622Z,12.96
2018-04-02T13:49:04.769Z,12.91
2018-04-02T13:51:33.124Z,13.22
2018-04-02T13:54:01.525Z,12.97
2018-04-02T13:56:30.126Z,12.83
2018-04-02T13:58:58.488Z,12.60
2018-04-02T14:01:27.406Z,12.63
2018-04-02T14:03:56.314Z,12.34
2018-04-02T14:06:24.763Z,12.06
2018-04-02T14:08:56.413Z,12.00
2018-04-02T14:11:24.929Z,11.96
2018-04-02T14:13:53.383Z,11.64
2018-04-02T14:16:22.376Z,11.85
2018-04-02T14:18:50.845Z,11.79
2018-04-02T14:21:19.496Z,11.77
2018-04-02T14:23:48.987Z,11.77
2018-04-02T14:26:18.718Z,12.22
2018-04-02T14:28:47.492Z,12.06
2018-04-02T14:31:15.905Z,12.28
2018-04-02T14:33:44.382Z,12.49
2018-04-02T14:36:12.785Z,12.56
2018-04-02T14:38:41.200Z,12.58
2018-04-02T14:41:10.707Z,12.69
2018-04-02T14:43:39.063Z,12.50
2018-04-02T14:46:08.074Z,12.18
2018-04-02T14:48:36.466Z,12.11
2018-04-02T14:51:04.898Z,11.93
2018-04-02T14:53:33.295Z,12.05
2018-04-02T14:56:02.615Z,11.77
2018-04-02T14:58:31.911Z,11.47
2018-04-02T15:01:00.509Z,11.63
2018-04-02T15:03:28.925Z,11.90
2018-04-02T15:05:57.431Z,11.92
2018-04-02T15:08:26.116Z,11.92
2018-04-02T15:10:55.559Z,11.70
2018-04-02T15:13:24.204Z,11.45
2018-04-02T15:15:53.685Z,10.93
2018-04-02T15:18:22.396Z,10.57
2018-04-02T15:20:52.301Z,10.93
2018-04-02T15:23:20.766Z,11.15
2018-04-02T15:25:49.201Z,10.96
2018-04-02T15:28:18.634Z,10.79
2018-04-02T15:30:47.086Z,10.54
2018-04-02T15:33:15.568Z,10.51
2018-04-02T15:35:43.948Z,10.51
2018-04-02T15:38:12.323Z,10.56
2018-04-02T15:40:40.708Z,10.51
2018-04-02T15:43:09.136Z,10.62
2018-04-02T15:45:37.526Z,10.48
2018-04-02T15:48:08.115Z,10.60
2018-04-02T15:50:36.590Z,10.62
2018-04-02T15:53:05.077Z,10.34
2018-04-02T15:55:34.322Z,9.86
2018-04-02T15:58:03.159Z,9.83
2018-04-02T16:00:31.671Z,9.80
2018-04-02T16:03:00.252Z,9.85
2018-04-02T16:05:28.706Z,9.70
2018-04-02T16:07:57.383Z,9.60
2018-04-02T16:10:25.994Z,9.59
2018-04-02T16:12:54.456Z,9.63
2018-04-02T16:15:23.468Z,9.76
2018-04-02T16:17:52.040Z,9.80
2018-04-02T16:20:20.430Z,9.64
2018-04-02T16:22:49.034Z,9.65
2018-04-02T16:25:17.701Z,9.66
2018-04-02T16:27:46.092Z,9.72
2018-04-02T16:30:14.439Z,9.80
2018-04-02T16:32:42.899Z,9.84
2018-04-02T16:35:11.317Z,9.95
2018-04-02T16:37:41.662Z,9.95
2018-04-02T16:40:10.928Z,9.84
2018-04-02T16:42:39.345Z,9.72
2018-04-02T16:45:07.690Z,9.70
2018-04-02T16:47:36.070Z,9.76
2018-04-02T16:50:04.441Z,9.65
2018-04-02T16:52:33.744Z,9.55
2018-04-02T16:55:02.164Z,9.47
2018-04-02T16:57:30.503Z,9.39
2018-04-02T16:59:58.969Z,9.39
2018-04-02T17:02:27.623Z,9.46
2018-04-02T17:04:55.998Z,9.34
2018-04-02T17:07:24.997Z,9.31
2018-04-02T17:09:53.829Z,9.36
2018-04-02T17:12:23.678Z,9.18
2018-04-02T17:14:52.199Z,9.20
2018-04-02T17:17:20.700Z,9.23
2018-04-02T17:19:49.168Z,9.31
2018-04-02T17:22:17.621Z,9.28
2018-04-02T17:24:46.065Z,9.21
2018-04-02T17:27:14.569Z,9.22
2018-04-02T17:29:42.877Z,9.13
2018-04-02T17:32:11.546Z,8.97
2018-04-02T17:34:39.905Z,8.90
2018-04-02T17:37:08.284Z,8.86
2018-04-02T17:39:36.644Z,8.87
2018-04-02T17:42:05.166Z,8.89
2018-04-02T17:44:33.544Z,8.16
2018-04-02T17:47:01.934Z,8.17
2018-04-02T17:49:30.276Z,7.88
2018-04-02T17:51:58.700Z,7.65
2018-04-02T17:54:27.321Z,7.66
2018-04-02T17:56:55.805Z,7.55
2018-04-02T17:59:24.487Z,7.59
2018-04-02T18:01:54.178Z,7.51
2018-04-02T18:04:22.938Z,7.45
2018-04-02T18:06:51.402Z,7.49
2018-04-02T18:09:19.891Z,7.48
2018-04-02T18:11:48.597Z,7.53
2018-04-02T18:14:17.939Z,7.40
2018-04-02T18:16:46.857Z,7.38
2018-04-02T18:19:15.233Z,7.47
2018-04-02T18:21:43.845Z,7.47
2018-04-02T18:24:12.650Z,7.53
2018-04-02T18:26:41.085Z,7.55
2018-04-02T18:29:09.520Z,7.67
2018-04-02T18:31:39.074Z,7.58
2018-04-02T18:34:07.574Z,7.45
2018-04-02T18:36:35.952Z,7.54
2018-04-02T18:39:04.521Z,7.63
2018-04-02T18:41:33.001Z,7.57
2018-04-02T18:44:01.533Z,7.68
2018-04-02T18:46:30.004Z,7.59
2018-04-02T18:48:58.539Z,7.60
2018-04-02T18:51:27.125Z,7.53
2018-04-02T18:53:56.602Z,7.50
2018-04-02T18:56:27.036Z,7.62
2018-04-02T18:58:55.548Z,7.27
2018-04-02T19:01:24.094Z,7.29
2018-04-02T19:03:53.817Z,7.20
2018-04-02T19:06:22.288Z,7.23
2018-04-02T19:08:50.877Z,7.29
2018-04-02T19:11:19.461Z,7.10
2018-04-02T19:13:48.062Z,6.96
2018-04-02T19:16:17.035Z,6.79
2018-04-02T19:18:45.429Z,6.85
2018-04-02T19:21:13.902Z,6.76
2018-04-02T19:23:42.723Z,6.71
2018-04-02T19:26:11.097Z,6.89
2018-04-02T19:28:39.459Z,6.84
2018-04-02T19:31:07.878Z,6.68
2018-04-02T19:33:36.256Z,6.85
2018-04-02T19:36:04.648Z,6.72
2018-04-02T19:38:33.090Z,6.70
2018-04-02T19:41:01.551Z,6.75
2018-04-02T19:43:30.111Z,6.76
2018-04-02T19:45:59.137Z,6.78
2018-04-02T19:48:27.700Z,6.84
2018-04-02T19:50:56.182Z,6.69
2018-04-02T19:53:25.175Z,6.61
2018-04-02T19:55:53.720Z,6.52
2018-04-02T19:58:22.352Z,6.52
2018-04-02T20:00:51.141Z,6.47
2018-04-02T20:03:19.721Z,6.53
2018-04-02T20:05:48.441Z,6.48
2018-04-02T20:08:17.233Z,6.65
2018-04-02T20:10:45.589Z,6.65
2018-04-02T20:13:14.506Z,6.53
2018-04-02T20:15:43.812Z,6.47
2018-04-02T20:18:12.199Z,6.60
2018-04-02T20:20:40.608Z,6.52
2018-04-02T20:23:09.398Z,6.42
2018-04-02T20:25:37.697Z,6.38
2018-04-02T20:28:06.079Z,6.33
2018-04-02T20:30:35.531Z,6.48
2018-04-02T20:33:03.957Z,6.45
2018-04-02T20:35:32.318Z,6.35
2018-04-02T20:38:01.116Z,6.34
2018-04-02T20:40:29.525Z,6.41
2018-04-02T20:42:58.137Z,6.39
2018-04-02T20:45:26.775Z,6.37
2018-04-02T20:47:55.281Z,6.44
2018-04-02T20:50:23.717Z,6.41
2018-04-02T20:52:53.089Z,6.28
2018-04-02T20:55:21.544Z,6.36
2018-04-02T20:57:50.042Z,6.49
2018-04-02T21:00:19.176Z,6.41
2018-04-02T21:02:48.152Z,6.27
2018-04-02T21:05:16.666Z,6.27
2018-04-02T21:07:45.159Z,6.20
2018-04-02T21:10:13.538Z,6.24
2018-04-02T21:12:41.917Z,6.28
2018-04-02T21:15:12.579Z,6.37
2018-04-02T21:17:40.958Z,6.33
2018-04-02T21:20:09.765Z,6.15
2018-04-02T21:22:38.544Z,6.10
2018-04-02T21:25:06.976Z,6.20
2018-04-02T21:27:35.374Z,6.17
2018-04-02T21:30:03.727Z,6.23
2018-04-02T21:32:32.112Z,6.26
2018-04-02T21:35:00.511Z,6.19
2018-04-02T21:37:30.217Z,6.13
2018-04-02T21:39:58.798Z,6.08
2018-04-02T21:42:27.627Z,6.06
2018-04-02T21:44:56.579Z,5.96
2018-04-02T21:47:25.111Z,6.05
2018-04-02T21:49:53.609Z,6.07
2018-04-02T21:52:22.846Z,6.07
2018-04-02T21:54:51.429Z,6.00
2018-04-02T21:57:20.652Z,5.89
2018-04-02T21:59:49.531Z,5.95
2018-04-02T22:02:18.091Z,5.93
2018-04-02T22:04:46.655Z,5.97
2018-04-02T22:07:15.040Z,5.90
2018-04-02T22:09:43.536Z,5.87
2018-04-02T22:12:11.898Z,5.76
2018-04-02T22:14:40.733Z,5.79
2018-04-02T22:17:09.144Z,5.80
2018-04-02T22:19:37.550Z,5.84
2018-04-02T22:22:05.970Z,5.84
2018-04-02T22:24:34.335Z,5.76
2018-04-02T22:27:02.729Z,5.71
2018-04-02T22:29:31.319Z,5.78
2018-04-02T22:31:59.659Z,5.73
2018-04-02T22:34:28.255Z,5.72
2018-04-02T22:36:57.766Z,5.69
2018-04-02T22:39:26.331Z,5.62
2018-04-02T22:41:54.898Z,5.66
2018-04-02T22:44:23.335Z,5.75
2018-04-02T22:46:51.739Z,5.67
2018-04-02T22:49:20.317Z,5.65
2018-04-02T22:51:48.736Z,5.61
2018-04-02T22:54:17.101Z,5.42
2018-04-02T22:56:45.644Z,5.49
2018-04-02T22:59:14.871Z,5.44
2018-04-02T23:01:43.272Z,5.43
2018-04-02T23:04:12.977Z,5.41
2018-04-02T23:06:41.637Z,5.40
2018-04-02T23:09:09.991Z,5.33
2018-04-02T23:11:42.279Z,5.24
2018-04-02T23:14:11.619Z,5.29
2018-04-02T23:16:39.967Z,5.25
2018-04-02T23:19:09.492Z,5.27
2018-04-02T23:21:37.849Z,5.24
2018-04-02T23:24:06.662Z,5.27
2018-04-02T23:26:35.951Z,5.24
2018-04-02T23:29:04.427Z,5.23
2018-04-02T23:31:33.674Z,5.19
2018-04-02T23:34:02.585Z,5.20
2018-04-02T23:36:30.945Z,5.13
2018-04-02T23:38:59.753Z,5.14
2018-04-02T23:41:28.220Z,4.99
2018-04-02T23:43:56.784Z,5.03
2018-04-02T23:46:25.397Z,4.97
2018-04-02T23:48:54.195Z,5.07
2018-04-02T23:51:23.908Z,5.20
2018-04-02T23:53:52.274Z,5.06
2018-04-02T23:56:20.906Z,5.09
2018-04-02T23:58:49.727Z,5.07
